sensor_id;sensor_type;location;lat;lon;timestamp;temperature;humidity
19496;DHT22;9888;48.606;9.630;2023-03-05T00:00:54;0.30;99.90
19496;DHT22;9888;48.606;9.630;2023-03-05T00:03:20;0.30;99.90
19496;DHT22;9888;48.606;9.630;2023-03-05T00:05:55;0.30;99.90
19496;DHT22;9888;48.606;9.630;2023-03-05T00:08:23;0.40;99.90
19496;DHT22;9888;48.606;9.630;2023-03-05T00:11:02;0.30;99.90
19496;DHT22;9888;48.606;9.630;2023-03-05T00:13:29;0.30;99.90
19496;DHT22;9888;48.606;9.630;2023-03-05T00:15:56;0.40;99.90
19496;DHT22;9888;48.606;9.630;2023-03-05T00:18:23;0.40;99.90
19496;DHT22;9888;48.606;9.630;2023-03-05T00:20:50;0.40;99.90
19496;DHT22;9888;48.606;9.630;2023-03-05T00:23:17;0.40;99.90
19496;DHT22;9888;48.606;9.630;2023-03-05T00:25:49;0.30;99.90
19496;DHT22;9888;48.606;9.630;2023-03-05T00:28:20;0.30;99.90
19496;DHT22;9888;48.606;9.630;2023-03-05T00:30:46;0.20;99.90
19496;DHT22;9888;48.606;9.630;2023-03-05T00:33:13;0.20;99.90
19496;DHT22;9888;48.606;9.630;2023-03-05T00:35:43;0.30;99.90
19496;DHT22;9888;48.606;9.630;2023-03-05T00:38:13;0.40;99.90
19496;DHT22;9888;48.606;9.630;2023-03-05T00:40:40;0.40;99.90
19496;DHT22;9888;48.606;9.630;2023-03-05T00:43:08;0.30;99.90
19496;DHT22;9888;48.606;9.630;2023-03-05T00:45:36;0.30;99.90
19496;DHT22;9888;48.606;9.630;2023-03-05T00:48:03;0.20;99.90
19496;DHT22;9888;48.606;9.630;2023-03-05T00:50:30;0.20;99.90
19496;DHT22;9888;48.606;9.630;2023-03-05T00:52:57;0.20;99.90
19496;DHT22;9888;48.606;9.630;2023-03-05T00:55:24;0.20;99.90
19496;DHT22;9888;48.606;9.630;2023-03-05T00:57:50;0.20;99.90
19496;DHT22;9888;48.606;9.630;2023-03-05T01:00:18;0.20;99.90
19496;DHT22;9888;48.606;9.630;2023-03-05T01:02:45;0.20;99.90
19496;DHT22;9888;48.606;9.630;2023-03-05T01:05:14;0.20;99.90
19496;DHT22;9888;48.606;9.630;2023-03-05T01:07:41;0.30;99.90
19496;DHT22;9888;48.606;9.630;2023-03-05T01:10:09;0.30;99.90
19496;DHT22;9888;48.606;9.630;2023-03-05T01:12:43;0.40;99.90
19496;DHT22;9888;48.606;9.630;2023-03-05T01:15:10;0.50;99.90
19496;DHT22;9888;48.606;9.630;2023-03-05T01:17:37;0.50;99.90
19496;DHT22;9888;48.606;9.630;2023-03-05T01:20:05;0.50;99.90
19496;DHT22;9888;48.606;9.630;2023-03-05T01:22:32;0.50;99.90
19496;DHT22;9888;48.606;9.630;2023-03-05T01:24:59;0.50;99.90
19496;DHT22;9888;48.606;9.630;2023-03-05T01:27:27;0.40;99.90
19496;DHT22;9888;48.606;9.630;2023-03-05T01:29:54;0.40;99.90
19496;DHT22;9888;48.606;9.630;2023-03-05T01:32:22;0.40;99.90
19496;DHT22;9888;48.606;9.630;2023-03-05T01:34:49;0.40;99.90
19496;DHT22;9888;48.606;9.630;2023-03-05T01:37:15;0.40;99.90
19496;DHT22;9888;48.606;9.630;2023-03-05T01:39:42;0.50;99.90
19496;DHT22;9888;48.606;9.630;2023-03-05T01:42:09;0.50;99.90
19496;DHT22;9888;48.606;9.630;2023-03-05T01:44:36;0.50;99.90
19496;DHT22;9888;48.606;9.630;2023-03-05T01:47:03;0.50;99.90
19496;DHT22;9888;48.606;9.630;2023-03-05T01:49:34;0.50;99.90
19496;DHT22;9888;48.606;9.630;2023-03-05T01:52:15;0.40;99.90
19496;DHT22;9888;48.606;9.630;2023-03-05T01:57:19;0.40;99.90
19496;DHT22;9888;48.606;9.630;2023-03-05T01:59:51;0.40;99.90
19496;DHT22;9888;48.606;9.630;2023-03-05T02:02:20;0.40;99.90
19496;DHT22;9888;48.606;9.630;2023-03-05T02:04:55;0.30;99.90
19496;DHT22;9888;48.606;9.630;2023-03-05T02:07:23;0.30;99.90
19496;DHT22;9888;48.606;9.630;2023-03-05T02:09:50;0.30;99.90
19496;DHT22;9888;48.606;9.630;2023-03-05T02:12:18;0.30;99.90
19496;DHT22;9888;48.606;9.630;2023-03-05T02:14:47;0.40;99.90
19496;DHT22;9888;48.606;9.630;2023-03-05T02:17:15;0.30;99.90
19496;DHT22;9888;48.606;9.630;2023-03-05T02:20:06;0.40;99.90
19496;DHT22;9888;48.606;9.630;2023-03-05T02:22:34;0.50;99.90
19496;DHT22;9888;48.606;9.630;2023-03-05T02:25:01;0.50;99.90
19496;DHT22;9888;48.606;9.630;2023-03-05T02:27:38;0.50;99.90
19496;DHT22;9888;48.606;9.630;2023-03-05T02:30:07;0.50;99.90
19496;DHT22;9888;48.606;9.630;2023-03-05T02:32:34;0.50;99.90
19496;DHT22;9888;48.606;9.630;2023-03-05T02:35:30;0.50;99.90
19496;DHT22;9888;48.606;9.630;2023-03-05T02:37:57;0.40;99.90
19496;DHT22;9888;48.606;9.630;2023-03-05T02:40:24;0.40;99.90
19496;DHT22;9888;48.606;9.630;2023-03-05T02:42:52;0.50;99.90
19496;DHT22;9888;48.606;9.630;2023-03-05T02:45:19;0.50;99.90
19496;DHT22;9888;48.606;9.630;2023-03-05T02:47:46;0.60;99.90
19496;DHT22;9888;48.606;9.630;2023-03-05T02:50:13;0.60;99.90
19496;DHT22;9888;48.606;9.630;2023-03-05T02:52:39;0.70;99.90
19496;DHT22;9888;48.606;9.630;2023-03-05T02:55:06;0.70;99.90
19496;DHT22;9888;48.606;9.630;2023-03-05T02:57:33;0.70;99.90
19496;DHT22;9888;48.606;9.630;2023-03-05T03:00:01;0.70;99.90
19496;DHT22;9888;48.606;9.630;2023-03-05T03:02:28;0.70;99.90
19496;DHT22;9888;48.606;9.630;2023-03-05T03:04:59;0.70;99.90
19496;DHT22;9888;48.606;9.630;2023-03-05T03:07:26;0.80;99.90
19496;DHT22;9888;48.606;9.630;2023-03-05T03:09:53;0.80;99.90
19496;DHT22;9888;48.606;9.630;2023-03-05T03:12:30;0.70;99.90
19496;DHT22;9888;48.606;9.630;2023-03-05T03:14:56;0.70;99.90
19496;DHT22;9888;48.606;9.630;2023-03-05T03:17:23;0.70;99.90
19496;DHT22;9888;48.606;9.630;2023-03-05T03:19:50;0.60;99.90
19496;DHT22;9888;48.606;9.630;2023-03-05T03:22:17;0.60;99.90
19496;DHT22;9888;48.606;9.630;2023-03-05T03:24:44;0.70;99.90
19496;DHT22;9888;48.606;9.630;2023-03-05T03:27:11;0.60;99.90
19496;DHT22;9888;48.606;9.630;2023-03-05T03:29:38;0.70;99.90
19496;DHT22;9888;48.606;9.630;2023-03-05T03:32:06;0.70;99.90
19496;DHT22;9888;48.606;9.630;2023-03-05T03:34:33;0.60;99.90
19496;DHT22;9888;48.606;9.630;2023-03-05T03:37:00;0.60;99.90
19496;DHT22;9888;48.606;9.630;2023-03-05T03:39:27;0.60;99.90
19496;DHT22;9888;48.606;9.630;2023-03-05T03:41:54;0.60;99.90
19496;DHT22;9888;48.606;9.630;2023-03-05T03:44:21;0.60;99.90
19496;DHT22;9888;48.606;9.630;2023-03-05T03:46:50;0.60;99.90
19496;DHT22;9888;48.606;9.630;2023-03-05T03:49:20;0.60;99.90
19496;DHT22;9888;48.606;9.630;2023-03-05T03:51:49;0.60;99.90
19496;DHT22;9888;48.606;9.630;2023-03-05T03:54:17;0.60;99.90
19496;DHT22;9888;48.606;9.630;2023-03-05T03:56:44;0.50;99.90
19496;DHT22;9888;48.606;9.630;2023-03-05T03:59:12;0.60;99.90
19496;DHT22;9888;48.606;9.630;2023-03-05T04:01:38;0.50;99.90
19496;DHT22;9888;48.606;9.630;2023-03-05T04:04:05;0.50;99.90
19496;DHT22;9888;48.606;9.630;2023-03-05T04:06:32;0.50;99.90
19496;DHT22;9888;48.606;9.630;2023-03-05T04:08:59;0.50;99.90
19496;DHT22;9888;48.606;9.630;2023-03-05T04:11:27;0.60;99.90
19496;DHT22;9888;48.606;9.630;2023-03-05T04:13:54;0.70;99.90
19496;DHT22;9888;48.606;9.630;2023-03-05T04:16:20;0.60;99.90
19496;DHT22;9888;48.606;9.630;2023-03-05T04:18:47;0.60;99.90
19496;DHT22;9888;48.606;9.630;2023-03-05T04:21:15;0.60;99.90
19496;DHT22;9888;48.606;9.630;2023-03-05T04:23:42;0.60;99.90
19496;DHT22;9888;48.606;9.630;2023-03-05T04:26:09;0.50;99.90
19496;DHT22;9888;48.606;9.630;2023-03-05T04:28:36;0.60;99.90
19496;DHT22;9888;48.606;9.630;2023-03-05T04:31:03;0.60;99.90
19496;DHT22;9888;48.606;9.630;2023-03-05T04:33:30;0.60;99.90
19496;DHT22;9888;48.606;9.630;2023-03-05T04:35:58;0.60;99.90
19496;DHT22;9888;48.606;9.630;2023-03-05T04:38:24;0.60;99.90
19496;DHT22;9888;48.606;9.630;2023-03-05T04:40:51;0.60;99.90
19496;DHT22;9888;48.606;9.630;2023-03-05T04:43:18;0.50;99.90
19496;DHT22;9888;48.606;9.630;2023-03-05T04:45:45;0.50;99.90
19496;DHT22;9888;48.606;9.630;2023-03-05T04:48:12;0.50;99.90
19496;DHT22;9888;48.606;9.630;2023-03-05T04:50:39;0.50;99.90
19496;DHT22;9888;48.606;9.630;2023-03-05T04:53:06;0.50;99.90
19496;DHT22;9888;48.606;9.630;2023-03-05T04:55:32;0.50;99.90
19496;DHT22;9888;48.606;9.630;2023-03-05T04:58:00;0.50;99.90
19496;DHT22;9888;48.606;9.630;2023-03-05T05:00:27;0.50;99.90
19496;DHT22;9888;48.606;9.630;2023-03-05T05:02:53;0.60;99.90
19496;DHT22;9888;48.606;9.630;2023-03-05T05:05:25;0.60;99.90
19496;DHT22;9888;48.606;9.630;2023-03-05T05:07:56;0.60;99.90
19496;DHT22;9888;48.606;9.630;2023-03-05T05:10:24;0.50;99.90
19496;DHT22;9888;48.606;9.630;2023-03-05T05:12:51;0.50;99.90
19496;DHT22;9888;48.606;9.630;2023-03-05T05:15:19;0.50;99.90
19496;DHT22;9888;48.606;9.630;2023-03-05T05:17:46;0.50;99.90
19496;DHT22;9888;48.606;9.630;2023-03-05T05:20:14;0.50;99.90
19496;DHT22;9888;48.606;9.630;2023-03-05T05:22:42;0.50;99.90
19496;DHT22;9888;48.606;9.630;2023-03-05T05:28:01;0.60;99.90
19496;DHT22;9888;48.606;9.630;2023-03-05T05:30:28;0.60;99.90
19496;DHT22;9888;48.606;9.630;2023-03-05T05:32:55;0.60;99.90
19496;DHT22;9888;48.606;9.630;2023-03-05T05:35:21;0.50;99.90
19496;DHT22;9888;48.606;9.630;2023-03-05T05:37:48;0.50;99.90
19496;DHT22;9888;48.606;9.630;2023-03-05T05:40:15;0.50;99.90
19496;DHT22;9888;48.606;9.630;2023-03-05T05:42:42;0.50;99.90
19496;DHT22;9888;48.606;9.630;2023-03-05T05:45:10;0.60;99.90
19496;DHT22;9888;48.606;9.630;2023-03-05T05:47:37;0.60;99.90
19496;DHT22;9888;48.606;9.630;2023-03-05T05:50:05;0.60;99.90
19496;DHT22;9888;48.606;9.630;2023-03-05T05:52:33;0.60;99.90
19496;DHT22;9888;48.606;9.630;2023-03-05T05:54:59;0.60;99.90
19496;DHT22;9888;48.606;9.630;2023-03-05T06:00:14;0.70;99.90
19496;DHT22;9888;48.606;9.630;2023-03-05T06:02:42;0.60;99.90
19496;DHT22;9888;48.606;9.630;2023-03-05T06:05:11;0.60;99.90
19496;DHT22;9888;48.606;9.630;2023-03-05T06:07:39;0.60;99.90
19496;DHT22;9888;48.606;9.630;2023-03-05T06:10:07;0.50;99.90
19496;DHT22;9888;48.606;9.630;2023-03-05T06:12:36;0.50;99.90
19496;DHT22;9888;48.606;9.630;2023-03-05T06:15:02;0.50;99.90
19496;DHT22;9888;48.606;9.630;2023-03-05T06:17:30;0.50;99.90
19496;DHT22;9888;48.606;9.630;2023-03-05T06:19:57;0.50;99.90
19496;DHT22;9888;48.606;9.630;2023-03-05T06:22:24;0.50;99.90
19496;DHT22;9888;48.606;9.630;2023-03-05T06:24:51;0.50;99.90
19496;DHT22;9888;48.606;9.630;2023-03-05T06:27:18;0.50;99.90
19496;DHT22;9888;48.606;9.630;2023-03-05T06:29:45;0.50;99.90
19496;DHT22;9888;48.606;9.630;2023-03-05T06:32:12;0.50;99.90
19496;DHT22;9888;48.606;9.630;2023-03-05T06:34:41;0.50;99.90
19496;DHT22;9888;48.606;9.630;2023-03-05T06:37:08;0.50;99.90
19496;DHT22;9888;48.606;9.630;2023-03-05T06:39:34;0.50;99.90
19496;DHT22;9888;48.606;9.630;2023-03-05T06:42:01;0.50;99.90
19496;DHT22;9888;48.606;9.630;2023-03-05T06:44:28;0.50;99.90
19496;DHT22;9888;48.606;9.630;2023-03-05T06:46:56;0.50;99.90
19496;DHT22;9888;48.606;9.630;2023-03-05T06:49:24;0.50;99.90
19496;DHT22;9888;48.606;9.630;2023-03-05T06:51:51;0.60;99.90
19496;DHT22;9888;48.606;9.630;2023-03-05T06:54:17;0.60;99.90
19496;DHT22;9888;48.606;9.630;2023-03-05T06:56:45;0.60;99.90
19496;DHT22;9888;48.606;9.630;2023-03-05T06:59:14;0.60;99.90
19496;DHT22;9888;48.606;9.630;2023-03-05T07:01:42;0.60;99.90
19496;DHT22;9888;48.606;9.630;2023-03-05T07:04:11;0.60;99.90
19496;DHT22;9888;48.606;9.630;2023-03-05T07:06:39;0.70;99.90
19496;DHT22;9888;48.606;9.630;2023-03-05T07:09:10;0.60;99.90
19496;DHT22;9888;48.606;9.630;2023-03-05T07:11:38;0.60;99.90
19496;DHT22;9888;48.606;9.630;2023-03-05T07:14:05;0.60;99.90
19496;DHT22;9888;48.606;9.630;2023-03-05T07:16:33;0.60;99.90
19496;DHT22;9888;48.606;9.630;2023-03-05T07:19:02;0.70;99.90
19496;DHT22;9888;48.606;9.630;2023-03-05T07:21:31;0.80;99.90
19496;DHT22;9888;48.606;9.630;2023-03-05T07:24:00;0.80;99.90
19496;DHT22;9888;48.606;9.630;2023-03-05T07:26:27;0.70;99.90
19496;DHT22;9888;48.606;9.630;2023-03-05T07:28:54;0.70;99.90
19496;DHT22;9888;48.606;9.630;2023-03-05T07:31:22;0.70;99.90
19496;DHT22;9888;48.606;9.630;2023-03-05T07:33:52;0.70;99.90
19496;DHT22;9888;48.606;9.630;2023-03-05T07:36:20;0.80;99.90
19496;DHT22;9888;48.606;9.630;2023-03-05T07:38:47;0.90;99.90
19496;DHT22;9888;48.606;9.630;2023-03-05T07:41:16;0.90;99.90
19496;DHT22;9888;48.606;9.630;2023-03-05T07:43:52;0.80;99.90
19496;DHT22;9888;48.606;9.630;2023-03-05T07:46:28;0.90;99.90
19496;DHT22;9888;48.606;9.630;2023-03-05T07:48:56;0.90;99.90
19496;DHT22;9888;48.606;9.630;2023-03-05T07:51:25;0.90;99.90
19496;DHT22;9888;48.606;9.630;2023-03-05T07:53:53;0.90;99.90
19496;DHT22;9888;48.606;9.630;2023-03-05T07:56:26;0.90;99.90
19496;DHT22;9888;48.606;9.630;2023-03-05T07:58:58;0.90;99.90
19496;DHT22;9888;48.606;9.630;2023-03-05T08:01:26;0.90;99.90
19496;DHT22;9888;48.606;9.630;2023-03-05T08:03:53;0.90;99.90
19496;DHT22;9888;48.606;9.630;2023-03-05T08:06:44;0.80;99.90
19496;DHT22;9888;48.606;9.630;2023-03-05T08:09:30;0.80;99.90
19496;DHT22;9888;48.606;9.630;2023-03-05T08:11:57;0.80;99.90
19496;DHT22;9888;48.606;9.630;2023-03-05T08:14:25;0.90;99.90
19496;DHT22;9888;48.606;9.630;2023-03-05T08:16:52;0.90;99.90
19496;DHT22;9888;48.606;9.630;2023-03-05T08:19:20;1.00;99.90
19496;DHT22;9888;48.606;9.630;2023-03-05T08:21:47;1.00;99.90
19496;DHT22;9888;48.606;9.630;2023-03-05T08:24:14;1.10;99.90
19496;DHT22;9888;48.606;9.630;2023-03-05T08:26:40;1.10;99.90
19496;DHT22;9888;48.606;9.630;2023-03-05T08:29:09;1.20;99.90
19496;DHT22;9888;48.606;9.630;2023-03-05T08:31:36;1.20;99.90
19496;DHT22;9888;48.606;9.630;2023-03-05T08:34:05;1.20;99.90
19496;DHT22;9888;48.606;9.630;2023-03-05T08:36:32;1.20;99.90
19496;DHT22;9888;48.606;9.630;2023-03-05T08:38:58;1.10;99.90
19496;DHT22;9888;48.606;9.630;2023-03-05T08:41:25;1.10;99.90
19496;DHT22;9888;48.606;9.630;2023-03-05T08:43:52;1.00;99.90
19496;DHT22;9888;48.606;9.630;2023-03-05T08:46:19;1.10;99.90
19496;DHT22;9888;48.606;9.630;2023-03-05T08:48:46;1.10;99.90
19496;DHT22;9888;48.606;9.630;2023-03-05T08:51:17;1.10;99.90
19496;DHT22;9888;48.606;9.630;2023-03-05T08:53:46;1.20;99.90
19496;DHT22;9888;48.606;9.630;2023-03-05T08:56:14;1.20;99.90
19496;DHT22;9888;48.606;9.630;2023-03-05T08:58:42;1.30;99.90
19496;DHT22;9888;48.606;9.630;2023-03-05T09:01:09;1.30;99.90
19496;DHT22;9888;48.606;9.630;2023-03-05T09:03:36;1.30;99.90
19496;DHT22;9888;48.606;9.630;2023-03-05T09:06:06;1.30;99.90
19496;DHT22;9888;48.606;9.630;2023-03-05T09:08:35;1.40;99.90
19496;DHT22;9888;48.606;9.630;2023-03-05T09:11:04;1.30;99.90
19496;DHT22;9888;48.606;9.630;2023-03-05T09:13:32;1.30;99.90
19496;DHT22;9888;48.606;9.630;2023-03-05T09:16:02;1.30;99.90
19496;DHT22;9888;48.606;9.630;2023-03-05T09:18:29;1.30;99.90
19496;DHT22;9888;48.606;9.630;2023-03-05T09:20:57;1.40;99.90
19496;DHT22;9888;48.606;9.630;2023-03-05T09:23:36;1.40;99.90
19496;DHT22;9888;48.606;9.630;2023-03-05T09:26:09;1.40;99.90
19496;DHT22;9888;48.606;9.630;2023-03-05T09:28:38;1.40;99.90
19496;DHT22;9888;48.606;9.630;2023-03-05T09:31:06;1.50;99.90
19496;DHT22;9888;48.606;9.630;2023-03-05T09:33:34;1.60;99.90
19496;DHT22;9888;48.606;9.630;2023-03-05T09:36:03;1.80;99.90
19496;DHT22;9888;48.606;9.630;2023-03-05T09:38:31;1.90;99.90
19496;DHT22;9888;48.606;9.630;2023-03-05T09:41:06;1.70;99.90
19496;DHT22;9888;48.606;9.630;2023-03-05T09:46:54;1.90;99.90
19496;DHT22;9888;48.606;9.630;2023-03-05T09:50:17;2.00;99.90
19496;DHT22;9888;48.606;9.630;2023-03-05T09:52:49;2.30;99.90
19496;DHT22;9888;48.606;9.630;2023-03-05T09:55:37;2.40;99.90
19496;DHT22;9888;48.606;9.630;2023-03-05T09:58:16;2.50;99.90
19496;DHT22;9888;48.606;9.630;2023-03-05T10:00:47;2.60;99.90
19496;DHT22;9888;48.606;9.630;2023-03-05T10:14:30;2.40;99.90
19496;DHT22;9888;48.606;9.630;2023-03-05T10:17:09;2.30;99.90
19496;DHT22;9888;48.606;9.630;2023-03-05T10:23:03;2.40;99.90
19496;DHT22;9888;48.606;9.630;2023-03-05T10:28:39;2.60;99.90
19496;DHT22;9888;48.606;9.630;2023-03-05T10:34:17;2.50;99.90
19496;DHT22;9888;48.606;9.630;2023-03-05T10:37:15;2.60;99.90
19496;DHT22;9888;48.606;9.630;2023-03-05T10:42:44;2.80;99.90
19496;DHT22;9888;48.606;9.630;2023-03-05T10:45:17;3.10;99.90
19496;DHT22;9888;48.606;9.630;2023-03-05T10:48:00;3.10;99.90
19496;DHT22;9888;48.606;9.630;2023-03-05T10:50:41;3.00;99.90
19496;DHT22;9888;48.606;9.630;2023-03-05T10:53:27;3.10;99.90
19496;DHT22;9888;48.606;9.630;2023-03-05T10:55:55;3.20;99.90
19496;DHT22;9888;48.606;9.630;2023-03-05T10:58:23;3.40;99.90
19496;DHT22;9888;48.606;9.630;2023-03-05T11:04:03;3.40;99.90
19496;DHT22;9888;48.606;9.630;2023-03-05T11:06:44;3.20;99.90
19496;DHT22;9888;48.606;9.630;2023-03-05T11:09:25;3.20;99.90
19496;DHT22;9888;48.606;9.630;2023-03-05T11:12:05;3.10;99.90
19496;DHT22;9888;48.606;9.630;2023-03-05T11:14:47;3.20;99.90
19496;DHT22;9888;48.606;9.630;2023-03-05T11:17:36;3.20;99.90
19496;DHT22;9888;48.606;9.630;2023-03-05T11:23:14;3.40;99.90
19496;DHT22;9888;48.606;9.630;2023-03-05T11:26:16;3.30;99.90
19496;DHT22;9888;48.606;9.630;2023-03-05T11:31:23;3.50;99.90
19496;DHT22;9888;48.606;9.630;2023-03-05T11:39:21;3.30;99.90
19496;DHT22;9888;48.606;9.630;2023-03-05T11:44:25;3.30;99.90
19496;DHT22;9888;48.606;9.630;2023-03-05T11:47:01;3.40;99.90
19496;DHT22;9888;48.606;9.630;2023-03-05T11:49:30;3.50;99.90
19496;DHT22;9888;48.606;9.630;2023-03-05T11:52:07;3.50;99.90
19496;DHT22;9888;48.606;9.630;2023-03-05T11:55:14;3.50;99.90
19496;DHT22;9888;48.606;9.630;2023-03-05T12:00:20;3.60;99.90
19496;DHT22;9888;48.606;9.630;2023-03-05T12:02:53;3.50;99.90
19496;DHT22;9888;48.606;9.630;2023-03-05T12:05:22;3.30;99.90
19496;DHT22;9888;48.606;9.630;2023-03-05T12:07:52;3.10;99.90
19496;DHT22;9888;48.606;9.630;2023-03-05T12:10:24;2.70;99.90
19496;DHT22;9888;48.606;9.630;2023-03-05T12:13:05;2.70;99.90
19496;DHT22;9888;48.606;9.630;2023-03-05T12:15:58;2.80;99.90
19496;DHT22;9888;48.606;9.630;2023-03-05T12:19:00;2.80;99.90
19496;DHT22;9888;48.606;9.630;2023-03-05T12:21:42;2.90;99.90
19496;DHT22;9888;48.606;9.630;2023-03-05T12:34:58;2.80;99.90
19496;DHT22;9888;48.606;9.630;2023-03-05T12:40:02;2.30;99.90
19496;DHT22;9888;48.606;9.630;2023-03-05T12:47:41;2.10;99.90
19496;DHT22;9888;48.606;9.630;2023-03-05T12:53:08;2.10;99.90
19496;DHT22;9888;48.606;9.630;2023-03-05T13:01:13;2.00;99.90
19496;DHT22;9888;48.606;9.630;2023-03-05T13:04:50;2.10;99.90
19496;DHT22;9888;48.606;9.630;2023-03-05T13:07:04;2.20;99.90
19496;DHT22;9888;48.606;9.630;2023-03-05T13:09:33;2.20;99.90
19496;DHT22;9888;48.606;9.630;2023-03-05T13:12:03;2.20;99.90
19496;DHT22;9888;48.606;9.630;2023-03-05T13:14:44;2.20;99.90
19496;DHT22;9888;48.606;9.630;2023-03-05T13:25:44;2.20;99.90
19496;DHT22;9888;48.606;9.630;2023-03-05T13:28:15;2.10;99.90
19496;DHT22;9888;48.606;9.630;2023-03-05T13:31:01;2.00;99.90
19496;DHT22;9888;48.606;9.630;2023-03-05T13:33:32;1.90;99.90
19496;DHT22;9888;48.606;9.630;2023-03-05T13:35:59;1.90;99.90
19496;DHT22;9888;48.606;9.630;2023-03-05T13:38:42;1.90;99.90
19496;DHT22;9888;48.606;9.630;2023-03-05T13:43:53;1.90;99.90
19496;DHT22;9888;48.606;9.630;2023-03-05T13:46:35;1.90;99.90
19496;DHT22;9888;48.606;9.630;2023-03-05T13:49:26;1.90;99.90
19496;DHT22;9888;48.606;9.630;2023-03-05T13:51:55;2.00;99.90
19496;DHT22;9888;48.606;9.630;2023-03-05T13:54:25;2.00;99.90
19496;DHT22;9888;48.606;9.630;2023-03-05T13:56:58;2.00;99.90
19496;DHT22;9888;48.606;9.630;2023-03-05T13:59:37;2.00;99.90
19496;DHT22;9888;48.606;9.630;2023-03-05T14:02:15;2.20;99.90
19496;DHT22;9888;48.606;9.630;2023-03-05T14:04:43;2.30;99.90
19496;DHT22;9888;48.606;9.630;2023-03-05T14:07:25;2.30;99.90
19496;DHT22;9888;48.606;9.630;2023-03-05T14:09:56;2.30;99.90
19496;DHT22;9888;48.606;9.630;2023-03-05T14:12:35;2.30;99.90
19496;DHT22;9888;48.606;9.630;2023-03-05T14:15:24;2.30;99.90
19496;DHT22;9888;48.606;9.630;2023-03-05T14:17:51;2.30;99.90
19496;DHT22;9888;48.606;9.630;2023-03-05T14:20:23;2.20;99.90
19496;DHT22;9888;48.606;9.630;2023-03-05T14:22:57;2.20;99.90
19496;DHT22;9888;48.606;9.630;2023-03-05T14:30:49;2.20;99.90
19496;DHT22;9888;48.606;9.630;2023-03-05T14:35:51;2.20;99.90
19496;DHT22;9888;48.606;9.630;2023-03-05T14:38:32;2.20;99.90
19496;DHT22;9888;48.606;9.630;2023-03-05T14:41:30;2.20;99.90
19496;DHT22;9888;48.606;9.630;2023-03-05T14:44:00;2.20;99.90
19496;DHT22;9888;48.606;9.630;2023-03-05T14:46:29;2.10;99.90
19496;DHT22;9888;48.606;9.630;2023-03-05T14:48:57;2.10;99.90
19496;DHT22;9888;48.606;9.630;2023-03-05T14:51:27;2.00;99.90
19496;DHT22;9888;48.606;9.630;2023-03-05T14:53:54;1.90;99.90
19496;DHT22;9888;48.606;9.630;2023-03-05T14:56:26;1.80;99.90
19496;DHT22;9888;48.606;9.630;2023-03-05T14:58:54;1.80;99.90
19496;DHT22;9888;48.606;9.630;2023-03-05T15:01:22;1.80;99.90
19496;DHT22;9888;48.606;9.630;2023-03-05T15:03:53;1.70;99.90
19496;DHT22;9888;48.606;9.630;2023-03-05T15:06:38;1.80;99.90
19496;DHT22;9888;48.606;9.630;2023-03-05T15:09:09;1.70;99.90
19496;DHT22;9888;48.606;9.630;2023-03-05T15:11:37;1.70;99.90
19496;DHT22;9888;48.606;9.630;2023-03-05T15:14:06;1.70;99.90
19496;DHT22;9888;48.606;9.630;2023-03-05T15:16:33;1.80;99.90
19496;DHT22;9888;48.606;9.630;2023-03-05T15:19:00;1.80;99.90
19496;DHT22;9888;48.606;9.630;2023-03-05T15:21:28;1.80;99.90
19496;DHT22;9888;48.606;9.630;2023-03-05T15:23:56;1.80;99.90
19496;DHT22;9888;48.606;9.630;2023-03-05T15:26:23;1.80;99.90
19496;DHT22;9888;48.606;9.630;2023-03-05T15:28:50;1.70;99.90
19496;DHT22;9888;48.606;9.630;2023-03-05T15:31:17;1.70;99.90
19496;DHT22;9888;48.606;9.630;2023-03-05T15:37:08;1.70;99.90
19496;DHT22;9888;48.606;9.630;2023-03-05T15:39:37;1.70;99.90
19496;DHT22;9888;48.606;9.630;2023-03-05T15:42:05;1.70;99.90
19496;DHT22;9888;48.606;9.630;2023-03-05T15:44:35;1.80;99.90
19496;DHT22;9888;48.606;9.630;2023-03-05T15:47:12;1.70;99.90
19496;DHT22;9888;48.606;9.630;2023-03-05T15:49:40;1.70;99.90
19496;DHT22;9888;48.606;9.630;2023-03-05T15:52:09;1.70;99.90
19496;DHT22;9888;48.606;9.630;2023-03-05T15:54:36;1.60;99.90
19496;DHT22;9888;48.606;9.630;2023-03-05T15:57:08;1.60;99.90
19496;DHT22;9888;48.606;9.630;2023-03-05T15:59:36;1.60;99.90
19496;DHT22;9888;48.606;9.630;2023-03-05T16:02:03;1.70;99.90
19496;DHT22;9888;48.606;9.630;2023-03-05T16:07:42;1.50;99.90
19496;DHT22;9888;48.606;9.630;2023-03-05T16:10:14;1.60;99.90
19496;DHT22;9888;48.606;9.630;2023-03-05T16:12:43;1.60;99.90
19496;DHT22;9888;48.606;9.630;2023-03-05T16:15:14;1.50;99.90
19496;DHT22;9888;48.606;9.630;2023-03-05T16:17:43;1.60;99.90
19496;DHT22;9888;48.606;9.630;2023-03-05T16:20:12;1.50;99.90
19496;DHT22;9888;48.606;9.630;2023-03-05T16:22:39;1.50;99.90
19496;DHT22;9888;48.606;9.630;2023-03-05T16:25:08;1.50;99.90
19496;DHT22;9888;48.606;9.630;2023-03-05T16:27:35;1.50;99.90
19496;DHT22;9888;48.606;9.630;2023-03-05T16:30:04;1.40;99.90
19496;DHT22;9888;48.606;9.630;2023-03-05T16:32:32;1.40;99.90
19496;DHT22;9888;48.606;9.630;2023-03-05T16:34:59;1.40;99.90
19496;DHT22;9888;48.606;9.630;2023-03-05T16:37:26;1.40;99.90
19496;DHT22;9888;48.606;9.630;2023-03-05T16:39:57;1.40;99.90
19496;DHT22;9888;48.606;9.630;2023-03-05T16:42:25;1.40;99.90
19496;DHT22;9888;48.606;9.630;2023-03-05T16:44:52;1.30;99.90
19496;DHT22;9888;48.606;9.630;2023-03-05T16:47:21;1.40;99.90
19496;DHT22;9888;48.606;9.630;2023-03-05T16:49:57;1.30;99.90
19496;DHT22;9888;48.606;9.630;2023-03-05T16:52:28;1.30;99.90
19496;DHT22;9888;48.606;9.630;2023-03-05T16:58:53;1.30;99.90
19496;DHT22;9888;48.606;9.630;2023-03-05T17:01:22;1.30;99.90
19496;DHT22;9888;48.606;9.630;2023-03-05T17:03:51;1.30;99.90
19496;DHT22;9888;48.606;9.630;2023-03-05T17:07:03;1.20;99.90
19496;DHT22;9888;48.606;9.630;2023-03-05T17:09:45;1.20;99.90
19496;DHT22;9888;48.606;9.630;2023-03-05T17:12:17;1.20;99.90
19496;DHT22;9888;48.606;9.630;2023-03-05T17:14:45;1.20;99.90
19496;DHT22;9888;48.606;9.630;2023-03-05T17:17:13;1.20;99.90
19496;DHT22;9888;48.606;9.630;2023-03-05T17:19:41;1.20;99.90
19496;DHT22;9888;48.606;9.630;2023-03-05T17:22:14;1.20;99.90
19496;DHT22;9888;48.606;9.630;2023-03-05T17:24:42;1.20;99.90
19496;DHT22;9888;48.606;9.630;2023-03-05T17:27:10;1.20;99.90
19496;DHT22;9888;48.606;9.630;2023-03-05T17:29:38;1.20;99.90
19496;DHT22;9888;48.606;9.630;2023-03-05T17:32:06;1.10;99.90
19496;DHT22;9888;48.606;9.630;2023-03-05T17:34:33;1.00;99.90
19496;DHT22;9888;48.606;9.630;2023-03-05T17:37:01;1.10;99.90
19496;DHT22;9888;48.606;9.630;2023-03-05T17:39:28;1.10;99.90
19496;DHT22;9888;48.606;9.630;2023-03-05T17:41:55;1.10;99.90
19496;DHT22;9888;48.606;9.630;2023-03-05T17:44:22;1.10;99.90
19496;DHT22;9888;48.606;9.630;2023-03-05T17:46:49;1.10;99.90
19496;DHT22;9888;48.606;9.630;2023-03-05T17:49:16;1.10;99.90
19496;DHT22;9888;48.606;9.630;2023-03-05T17:51:44;1.10;99.90
19496;DHT22;9888;48.606;9.630;2023-03-05T17:54:11;1.20;99.90
19496;DHT22;9888;48.606;9.630;2023-03-05T17:56:38;1.20;99.90
19496;DHT22;9888;48.606;9.630;2023-03-05T17:59:04;1.10;99.90
19496;DHT22;9888;48.606;9.630;2023-03-05T18:01:39;1.10;99.90
19496;DHT22;9888;48.606;9.630;2023-03-05T18:04:11;1.00;99.90
19496;DHT22;9888;48.606;9.630;2023-03-05T18:06:40;1.00;99.90
19496;DHT22;9888;48.606;9.630;2023-03-05T18:09:08;0.90;99.90
19496;DHT22;9888;48.606;9.630;2023-03-05T18:11:37;0.90;99.90
19496;DHT22;9888;48.606;9.630;2023-03-05T18:14:04;1.00;99.90